Skip Navigation Links
NOAA logo - Click to go to the NOAA homepage
NOAA's National Weather Service
Alaska Aviation Weather Unit
  NWS logo - Click to go to the NWS homepage
Left Navbar Graphic     23 AKDT = 07 GMT

   
NOAA is celebrating 200 years of science, service, and stewardship. Visit the NOAA 200th celebration Web site to learn more.
USA.gov is the U.S. Government's official Web portal to all Federal, state and local government Web resources and services.
Facebook
NWS on Facebook

AAWU Home :: Display TAF Add Bookmark
METAR PAMR 240153Z VRB03KT 10SM BKN055 BKN070 OVC080 12/01 A2965 RMK AO2
     SLP043 T01220011=

METAR PAMR 240253Z VRB03KT 10SM FEW060 SCT075 12/01 A2964 RMK AO2 SLP039
     T01220011 56010=

METAR PAMR 240353Z 33005KT 10SM FEW085 SCT110 11/02 A2965 RMK AO2
 SLP040 T01060017=

METAR PAMR 240453Z 35003KT 10SM BKN070 11/01 A2965 RMK AO2 SLP040
 T01060011=

METAR PAMR 240553Z 35004KT 10SM BKN070 BKN090 10/02 A2965 RMK AO2
 SLP041 T01000017 10139 20100 51001=

METAR PAMR 240653Z 00000KT 10SM BKN075 BKN090 OVC130 09/02 A2965 RMK AO2
     SLP042 T00940017=


NOAA's National Weather Service
Alaska Aviation Weather Unit
6930 Sand Lake Road
Anchorage, AK 99502-1845
Disclaimer
Credits
Glossary
Privacy Policy
About Us
Career Opportunities
Contact AAWU Internet Services Site last modified: April, 17th 2012